createdAt,value
2023-03-05T00:01:38.030Z,1002.4
2023-03-05T00:03:21.318Z,1002.1
2023-03-05T00:05:04.834Z,998.5
2023-03-05T00:06:48.189Z,1000.2
2023-03-05T00:08:31.536Z,1000.7
2023-03-05T00:10:14.984Z,998.5
2023-03-05T00:11:58.298Z,999.3
2023-03-05T00:13:41.938Z,998.2
2023-03-05T00:15:25.085Z,998.5
2023-03-05T00:17:08.867Z,998.6
2023-03-05T00:18:52.273Z,999.4
2023-03-05T00:20:35.697Z,996.6
2023-03-05T00:22:18.994Z,991.1
2023-03-05T00:24:02.429Z,981.2
2023-03-05T00:25:45.763Z,968
2023-03-05T00:27:29.263Z,954.7
2023-03-05T00:29:12.559Z,939.8
2023-03-05T00:32:39.061Z,922.9
2023-03-05T00:34:22.589Z,930.3
2023-03-05T00:36:05.992Z,939.5
2023-03-05T00:37:49.354Z,946.2
2023-03-05T00:39:32.767Z,950.6
2023-03-05T00:41:16.185Z,954.8
2023-03-05T00:42:59.405Z,958.7
2023-03-05T00:44:42.797Z,964
2023-03-05T00:48:09.286Z,970.2
2023-03-05T00:49:52.698Z,975.4
2023-03-05T00:51:36.107Z,973.7
2023-03-05T00:53:19.582Z,975.2
2023-03-05T00:55:02.924Z,978.6
2023-03-05T00:56:46.271Z,980.6
2023-03-05T00:58:29.666Z,976.7
2023-03-05T01:00:13.066Z,977.4
2023-03-05T01:03:39.613Z,976.1
2023-03-05T01:05:22.997Z,975.7
2023-03-05T01:07:06.395Z,974.5
2023-03-05T01:08:49.806Z,977
2023-03-05T01:10:33.114Z,980.3
2023-03-05T01:12:16.501Z,980.4
2023-03-05T01:14:00.072Z,978.6
2023-03-05T01:15:43.413Z,978.8
2023-03-05T01:19:09.776Z,979.4
2023-03-05T01:20:53.317Z,978.4
2023-03-05T01:22:36.573Z,978
2023-03-05T01:24:20.101Z,978.8
2023-03-05T01:26:03.329Z,979.2
2023-03-05T01:27:46.730Z,977.2
2023-03-05T01:29:30.122Z,973.4
2023-03-05T01:31:13.597Z,970.8
2023-03-05T01:34:39.985Z,971.5
2023-03-05T01:36:23.416Z,974.4
2023-03-05T01:38:06.793Z,974.2
2023-03-05T01:39:50.223Z,974.6
2023-03-05T01:41:33.572Z,976
2023-03-05T01:43:16.980Z,974.1
2023-03-05T01:45:00.510Z,972.5
2023-03-05T01:46:43.751Z,975.7
2023-03-05T01:51:53.052Z,975.8
2023-03-05T01:53:36.411Z,978.7
2023-03-05T01:55:19.793Z,978.3
2023-03-05T01:57:03.253Z,976.8
2023-03-05T01:58:46.588Z,977.6
2023-03-05T02:00:30.051Z,977.7
2023-03-05T02:02:13.440Z,975.2
2023-03-05T02:03:56.863Z,974.4
2023-03-05T02:09:06.020Z,978.2
2023-03-05T02:10:49.412Z,974.5
2023-03-05T02:12:32.857Z,972.3
2023-03-05T02:14:16.252Z,969.8
2023-03-05T02:15:59.696Z,967.6
2023-03-05T02:17:43.003Z,966
2023-03-05T02:19:26.395Z,966.7
2023-03-05T02:21:09.856Z,966.7
2023-03-05T02:24:36.285Z,968
2023-03-05T02:26:19.732Z,966.1
2023-03-05T02:28:03.139Z,961.4
2023-03-05T02:29:46.552Z,957.7
2023-03-05T02:31:29.843Z,958.6
2023-03-05T02:33:13.395Z,960.5
2023-03-05T02:34:56.647Z,960.6
2023-03-05T02:36:40.038Z,961.5
2023-03-05T02:40:06.603Z,965.8
2023-03-05T02:41:49.905Z,964.2
2023-03-05T02:43:33.306Z,962.2
2023-03-05T02:45:16.789Z,959.5
2023-03-05T02:47:00.152Z,957.1
2023-03-05T02:48:43.506Z,957.1
2023-03-05T02:50:26.900Z,956.4
2023-03-05T02:52:10.288Z,954.2
2023-03-05T02:55:36.756Z,952.1
2023-03-05T02:57:20.211Z,949.6
2023-03-05T02:59:03.568Z,945.8
2023-03-05T03:00:46.952Z,947
2023-03-05T03:02:30.347Z,948.6
2023-03-05T03:04:13.791Z,950.3
2023-03-05T03:05:57.188Z,953.7
2023-03-05T03:07:40.538Z,954.2
2023-03-05T03:12:49.827Z,953.7
2023-03-05T03:14:33.167Z,951.4
2023-03-05T03:16:16.600Z,954.3
2023-03-05T03:17:59.990Z,957.7
2023-03-05T03:19:43.469Z,959
2023-03-05T03:21:26.804Z,960.5
2023-03-05T03:23:10.234Z,961.4
2023-03-05T03:24:53.558Z,962.1
2023-03-05T03:30:02.878Z,962.7
2023-03-05T03:31:46.201Z,962.7
2023-03-05T03:33:29.581Z,961.5
2023-03-05T03:35:13.038Z,962.4
2023-03-05T03:36:56.374Z,962.4
2023-03-05T03:38:39.830Z,965.1
2023-03-05T03:40:23.273Z,967.3
2023-03-05T03:42:06.635Z,969.1
2023-03-05T03:45:33.045Z,963.2
2023-03-05T03:47:16.489Z,962.1
2023-03-05T03:48:59.836Z,958.2
2023-03-05T03:50:43.221Z,953.7
2023-03-05T03:52:26.616Z,955.3
2023-03-05T03:54:10.013Z,952.8
2023-03-05T03:55:53.397Z,951.6
2023-03-05T03:57:36.802Z,949.1
2023-03-05T04:02:46.051Z,949.6
2023-03-05T04:04:29.431Z,949.1
2023-03-05T04:06:12.839Z,946.7
2023-03-05T04:07:56.243Z,946.3
2023-03-05T04:09:39.637Z,947.7
2023-03-05T04:11:23.044Z,948.4
2023-03-05T04:13:06.412Z,949.6
2023-03-05T04:14:49.822Z,947.1
2023-03-05T04:19:59.100Z,955.7
2023-03-05T04:21:42.470Z,954.3
2023-03-05T04:23:25.904Z,954.1
2023-03-05T04:25:09.244Z,952.5
2023-03-05T04:26:52.678Z,950.7
2023-03-05T04:28:36.031Z,946.2
2023-03-05T04:30:19.425Z,946.7
2023-03-05T04:32:02.879Z,946.8
2023-03-05T04:37:12.078Z,941
2023-03-05T04:38:55.525Z,940
2023-03-05T04:40:38.873Z,939
2023-03-05T04:42:22.337Z,937.8
2023-03-05T04:44:05.696Z,942.4
2023-03-05T04:45:49.052Z,944.6
2023-03-05T04:47:32.443Z,943.7
2023-03-05T04:49:15.908Z,937.3
2023-03-05T04:52:42.316Z,938.7
2023-03-05T04:54:25.774Z,938.2
2023-03-05T04:56:09.107Z,936.7
2023-03-05T04:57:52.512Z,940.1
2023-03-05T04:59:35.892Z,940.4
2023-03-05T05:01:19.326Z,935.7
2023-03-05T05:03:02.681Z,935.7
2023-03-05T05:04:46.160Z,935.5
2023-03-05T05:09:55.306Z,936.9
2023-03-05T05:11:38.720Z,938.8
2023-03-05T05:13:22.112Z,941.8
2023-03-05T05:15:05.736Z,942.2
2023-03-05T05:16:48.911Z,943
2023-03-05T05:18:32.306Z,945.4
2023-03-05T05:20:15.731Z,947.8
2023-03-05T05:21:59.092Z,946.1
2023-03-05T05:25:25.569Z,943.7
2023-03-05T05:27:08.962Z,942.8
2023-03-05T05:28:52.387Z,945.2
2023-03-05T05:30:35.758Z,946.7
2023-03-05T05:32:19.159Z,946.8
2023-03-05T05:34:02.614Z,945.3
2023-03-05T05:35:46.007Z,945.1
2023-03-05T05:37:29.373Z,945.5
2023-03-05T05:40:55.883Z,943.4
2023-03-05T05:42:39.366Z,943.1
2023-03-05T05:44:22.602Z,943.4
2023-03-05T05:46:06.012Z,942.4
2023-03-05T05:47:49.406Z,940.4
2023-03-05T05:49:32.796Z,940.1
2023-03-05T05:51:16.224Z,940.6
2023-03-05T05:52:59.650Z,940.7
2023-03-05T05:56:26.100Z,938.6
2023-03-05T05:58:09.486Z,941.4
2023-03-05T05:59:52.910Z,944.6
2023-03-05T06:01:36.280Z,943.7
2023-03-05T06:03:19.706Z,943.8
2023-03-05T06:05:03.160Z,947.3
2023-03-05T06:06:46.465Z,947.6
2023-03-05T06:08:29.841Z,942.3
2023-03-05T06:13:39.096Z,936.2
2023-03-05T06:15:22.581Z,934
2023-03-05T06:17:05.885Z,934.4
2023-03-05T06:18:49.281Z,933.3
2023-03-05T06:20:32.675Z,931
2023-03-05T06:22:16.059Z,931.4
2023-03-05T06:23:59.465Z,930.5
2023-03-05T06:25:42.899Z,935
2023-03-05T06:30:52.100Z,936.6
2023-03-05T06:32:35.490Z,939.7
2023-03-05T06:34:19.071Z,940
2023-03-05T06:36:02.280Z,942.1
2023-03-05T06:37:45.686Z,943.6
2023-03-05T06:39:29.174Z,939.3
2023-03-05T06:41:12.463Z,937.2
2023-03-05T06:42:55.860Z,933.6
2023-03-05T06:48:05.163Z,926.6
2023-03-05T06:49:48.503Z,927.1
2023-03-05T06:51:31.955Z,924
2023-03-05T06:53:15.342Z,920.4
2023-03-05T06:54:58.690Z,921.3
2023-03-05T06:56:42.124Z,921.6
2023-03-05T06:58:25.485Z,922
2023-03-05T07:00:09.019Z,921.1
2023-03-05T07:05:18.213Z,918.7
2023-03-05T07:07:01.516Z,919.5
2023-03-05T07:08:45.056Z,919.2
2023-03-05T07:10:28.298Z,919.8
2023-03-05T07:12:11.712Z,921.5
2023-03-05T07:13:55.102Z,920.5
2023-03-05T07:15:38.503Z,919.7
2023-03-05T07:17:21.900Z,914.5
2023-03-05T07:20:48.352Z,912.1
2023-03-05T07:22:31.763Z,912.6
2023-03-05T07:24:15.170Z,913.8
2023-03-05T07:25:58.598Z,914.1
2023-03-05T07:27:41.981Z,915.4
2023-03-05T07:29:25.417Z,914.6
2023-03-05T07:31:08.738Z,915.5
2023-03-05T07:32:52.158Z,916.8
2023-03-05T07:36:18.702Z,915.9
2023-03-05T07:38:02.010Z,915
2023-03-05T07:39:45.424Z,915.7
2023-03-05T07:41:28.879Z,917.3
2023-03-05T07:43:12.314Z,918.3
2023-03-05T07:44:55.585Z,919.6
2023-03-05T07:46:39.081Z,919.8
2023-03-05T07:48:22.388Z,918.6
2023-03-05T07:51:48.846Z,912.7
2023-03-05T07:53:32.247Z,910.6
2023-03-05T07:55:15.719Z,908.5
2023-03-05T07:56:59.156Z,904.5
2023-03-05T07:58:42.481Z,904.2
2023-03-05T08:00:25.970Z,904.3
2023-03-05T08:02:09.447Z,902.4
2023-03-05T08:03:52.672Z,902.2
2023-03-05T08:07:19.173Z,904.6
2023-03-05T08:09:02.486Z,901
2023-03-05T08:10:45.897Z,899.2
2023-03-05T08:12:29.450Z,897.3
2023-03-05T08:14:12.792Z,893
2023-03-05T08:15:56.114Z,891
2023-03-05T08:17:39.465Z,893.7
2023-03-05T08:19:22.980Z,897.7
2023-03-05T08:24:32.114Z,904
2023-03-05T08:26:15.673Z,902.7
2023-03-05T08:27:58.916Z,902.5
2023-03-05T08:29:42.313Z,902.7
2023-03-05T08:31:25.812Z,903.7
2023-03-05T08:33:09.159Z,904.5
2023-03-05T08:34:52.487Z,904.1
2023-03-05T08:40:02.347Z,909.1
2023-03-05T08:41:45.827Z,911.6
2023-03-05T08:43:29.151Z,907
2023-03-05T08:45:12.596Z,912.7
2023-03-05T08:46:55.946Z,908.4
2023-03-05T08:48:39.401Z,905.2
2023-03-05T08:50:22.728Z,905.4
2023-03-05T08:52:06.133Z,905.3
2023-03-05T08:55:32.653Z,906.5
2023-03-05T08:57:16.007Z,906.8
2023-03-05T08:58:59.389Z,905.5
2023-03-05T09:00:42.793Z,907.8
2023-03-05T09:02:26.317Z,912.3
2023-03-05T09:04:09.629Z,919.1
2023-03-05T09:05:53.004Z,925.3
2023-03-05T09:07:36.382Z,928.8
2023-03-05T09:11:02.849Z,928.6
2023-03-05T09:12:46.261Z,929.4
2023-03-05T09:14:29.728Z,934.7
2023-03-05T09:16:13.060Z,948.8
2023-03-05T09:17:56.425Z,957.7
2023-03-05T09:19:39.922Z,959.1
2023-03-05T09:21:23.245Z,962.4
2023-03-05T09:23:06.624Z,968.8
2023-03-05T09:26:33.156Z,1055.6
2023-03-05T09:28:16.506Z,1047.3
2023-03-05T09:29:59.915Z,1039.7
2023-03-05T09:31:43.376Z,1048.1
2023-03-05T09:33:26.691Z,1045
2023-03-05T09:35:10.083Z,1026.5
2023-03-05T09:36:53.494Z,1008.6
2023-03-05T09:38:36.953Z,1006.3
2023-03-05T09:40:20.592Z,1021.4
2023-03-05T09:42:03.986Z,1019.4
2023-03-05T09:43:47.386Z,1013.8
2023-03-05T09:45:30.825Z,1007.1
2023-03-05T09:47:14.199Z,1005.4
2023-03-05T09:48:57.589Z,1012
2023-03-05T09:50:41.058Z,1012.4
2023-03-05T09:52:24.406Z,995.3
2023-03-05T09:55:50.835Z,954.5
2023-03-05T09:57:34.277Z,945.4
2023-03-05T09:59:17.635Z,937.2
2023-03-05T10:01:01.043Z,931.3
2023-03-05T10:02:44.416Z,924.4
2023-03-05T10:04:27.825Z,918.3
2023-03-05T10:06:11.219Z,914.1
2023-03-05T10:07:54.622Z,910.4
2023-03-05T10:11:21.202Z,883
2023-03-05T10:13:04.481Z,865
2023-03-05T10:14:47.873Z,862.4
2023-03-05T10:16:31.291Z,868.3
2023-03-05T10:18:14.681Z,875.2
2023-03-05T10:19:58.071Z,879.3
2023-03-05T10:21:41.488Z,878.1
2023-03-05T10:23:24.869Z,878
2023-03-05T10:26:51.450Z,879.2
2023-03-05T10:28:34.730Z,884.6
2023-03-05T10:30:18.126Z,882.6
2023-03-05T10:32:01.528Z,860.7
2023-03-05T10:33:44.923Z,835.5
2023-03-05T10:35:28.314Z,843.2
2023-03-05T10:37:11.710Z,852.1
2023-03-05T10:38:55.178Z,861.6
2023-03-05T10:42:21.591Z,866.6
2023-03-05T10:44:04.999Z,874
2023-03-05T10:45:48.364Z,885.7
2023-03-05T10:47:31.814Z,898.5
2023-03-05T10:49:15.169Z,911.1
2023-03-05T10:50:58.623Z,921.3
2023-03-05T10:52:41.961Z,929.2
2023-03-05T10:54:25.362Z,931.6
2023-03-05T10:57:51.828Z,930.7
2023-03-05T10:59:35.278Z,931.1
2023-03-05T11:01:18.639Z,935.6
2023-03-05T11:03:02.010Z,937.8
2023-03-05T11:04:45.439Z,939.2
2023-03-05T11:06:28.862Z,938.1
2023-03-05T11:08:12.193Z,941.3
2023-03-05T11:09:55.599Z,945.4
2023-03-05T11:13:22.076Z,988.5
2023-03-05T11:15:05.491Z,987.7
2023-03-05T11:16:48.852Z,993.1
2023-03-05T11:18:32.328Z,995.3
2023-03-05T11:20:15.649Z,992.2
2023-03-05T11:21:59.066Z,989.1
2023-03-05T11:23:42.457Z,977.7
2023-03-05T11:25:25.874Z,957.6
2023-03-05T11:28:52.318Z,946.6
2023-03-05T11:30:35.715Z,952.3
2023-03-05T11:32:19.180Z,952.1
2023-03-05T11:34:02.520Z,959.7
2023-03-05T11:35:45.943Z,971.1
2023-03-05T11:37:29.427Z,975.3
2023-03-05T11:39:12.718Z,975.5
2023-03-05T11:40:56.093Z,977.3
2023-03-05T11:44:22.589Z,986.8
2023-03-05T11:46:05.953Z,988.2
2023-03-05T11:47:49.406Z,989.1
2023-03-05T11:49:32.752Z,990
2023-03-05T11:51:16.148Z,996.7
2023-03-05T11:52:59.548Z,996.8
2023-03-05T11:54:42.941Z,1000.2
2023-03-05T11:56:26.494Z,1021.3
2023-03-05T11:58:10.096Z,1072.6
2023-03-05T11:59:53.438Z,1037.2
2023-03-05T12:01:36.832Z,1043.5
2023-03-05T12:03:20.311Z,1039.3
2023-03-05T12:05:03.667Z,1045.5
2023-03-05T12:06:47.091Z,1042.1
2023-03-05T12:08:30.428Z,1033.3
2023-03-05T12:10:13.815Z,1034.2
2023-03-05T12:13:40.293Z,1019.9
2023-03-05T12:15:23.688Z,1015.4
2023-03-05T12:17:07.119Z,1008.3
2023-03-05T12:18:50.473Z,1007
2023-03-05T12:20:33.907Z,1011.1
2023-03-05T12:22:17.289Z,1010.1
2023-03-05T12:24:00.665Z,1008
2023-03-05T12:25:44.076Z,1005.3
2023-03-05T12:29:10.531Z,1003.9
2023-03-05T12:30:53.979Z,999.8
2023-03-05T12:32:37.432Z,997.2
2023-03-05T12:34:20.730Z,991.1
2023-03-05T12:36:04.241Z,985
2023-03-05T12:37:47.508Z,981.8
2023-03-05T12:39:30.925Z,977.6
2023-03-05T12:41:14.365Z,975.2
2023-03-05T12:46:24.187Z,968.1
2023-03-05T12:48:07.704Z,964.5
2023-03-05T12:49:51.152Z,961.4
2023-03-05T12:51:34.375Z,956.8
2023-03-05T12:53:17.772Z,950.5
2023-03-05T12:55:01.166Z,943.1
2023-03-05T12:56:44.550Z,940.1
2023-03-05T13:00:11.189Z,930.7
2023-03-05T13:01:54.511Z,922.6
2023-03-05T13:03:37.851Z,917.2
2023-03-05T13:05:21.288Z,913.7
2023-03-05T13:07:04.611Z,909.1
2023-03-05T13:08:48.082Z,904.3
2023-03-05T13:10:31.478Z,902.7
2023-03-05T13:12:14.808Z,902
2023-03-05T13:15:41.402Z,890.1
2023-03-05T13:17:24.658Z,885.8
2023-03-05T13:19:08.136Z,883.4
2023-03-05T13:20:51.601Z,880
2023-03-05T13:22:34.841Z,874.2
2023-03-05T13:24:18.332Z,871.3
2023-03-05T13:26:01.816Z,870
2023-03-05T13:27:45.104Z,868.7
2023-03-05T13:31:11.511Z,862
2023-03-05T13:32:54.923Z,861.3
2023-03-05T13:34:38.307Z,860.1
2023-03-05T13:36:21.819Z,855.5
2023-03-05T13:38:05.192Z,850.2
2023-03-05T13:39:48.503Z,845
2023-03-05T13:41:32.032Z,842.7
2023-03-05T13:43:15.407Z,840.6
2023-03-05T13:46:41.743Z,830.7
2023-03-05T13:48:25.149Z,827.1
2023-03-05T13:50:08.587Z,823.8
2023-03-05T13:51:51.966Z,822.8
2023-03-05T13:53:35.379Z,820.1
2023-03-05T13:55:18.789Z,817.3
2023-03-05T13:57:02.232Z,814
2023-03-05T13:58:45.534Z,809
2023-03-05T14:00:29.282Z,806.3
2023-03-05T14:02:12.642Z,801.8
2023-03-05T14:03:56.099Z,798.3
2023-03-05T14:05:39.464Z,791.7
2023-03-05T14:07:22.809Z,789.1
2023-03-05T14:09:06.304Z,783.7
2023-03-05T14:10:49.750Z,781.1
2023-03-05T14:12:33.099Z,776.5
2023-03-05T14:15:59.522Z,772.5
2023-03-05T14:17:42.880Z,768.2
2023-03-05T14:19:26.253Z,764.5
2023-03-05T14:21:09.769Z,761
2023-03-05T14:22:53.052Z,755.8
2023-03-05T14:24:36.477Z,754.3
2023-03-05T14:26:19.847Z,752.7
2023-03-05T14:31:29.723Z,748.1
2023-03-05T14:33:13.232Z,744.8
2023-03-05T14:34:56.579Z,740.6
2023-03-05T14:36:39.900Z,736.6
2023-03-05T14:38:23.290Z,735.2
2023-03-05T14:40:06.833Z,731.5
2023-03-05T14:41:50.108Z,728.7
2023-03-05T14:43:33.548Z,723.4
2023-03-05T14:47:00.020Z,715.7
2023-03-05T14:48:43.432Z,712.5
2023-03-05T14:50:26.779Z,707.3
2023-03-05T14:52:10.263Z,703.2
2023-03-05T14:53:53.553Z,703.1
2023-03-05T14:55:37.085Z,703.3
2023-03-05T14:57:20.393Z,702.4
2023-03-05T14:59:03.839Z,702.1
2023-03-05T15:02:30.217Z,693.6
2023-03-05T15:04:13.663Z,689
2023-03-05T15:05:57.063Z,686.3
2023-03-05T15:07:40.400Z,684.2
2023-03-05T15:09:23.799Z,680.7
2023-03-05T15:11:07.308Z,679.8
2023-03-05T15:12:50.641Z,679.6
2023-03-05T15:14:34.030Z,681.1
2023-03-05T15:18:00.559Z,678
2023-03-05T15:19:43.901Z,676.6
2023-03-05T15:21:27.244Z,672.6
2023-03-05T15:23:10.641Z,671.6
2023-03-05T15:24:54.214Z,669.2
2023-03-05T15:26:37.452Z,668.2
2023-03-05T15:28:20.889Z,665.1
2023-03-05T15:30:04.265Z,662.2
2023-03-05T15:33:30.704Z,659.1
2023-03-05T15:35:14.082Z,653.7
2023-03-05T15:36:57.652Z,649.5
2023-03-05T15:38:40.965Z,645.8
2023-03-05T15:40:24.290Z,643.5
2023-03-05T15:42:07.722Z,639.2
2023-03-05T15:43:51.075Z,636.8
2023-03-05T15:45:34.481Z,635.2
2023-03-05T15:49:00.949Z,631.7
2023-03-05T15:50:44.437Z,624.6
2023-03-05T15:52:27.759Z,623.8
2023-03-05T15:54:11.163Z,623
2023-03-05T15:55:54.592Z,620.3
2023-03-05T15:57:38.076Z,615.7
2023-03-05T15:59:21.416Z,613.7
2023-03-05T16:01:04.779Z,609.3
2023-03-05T16:02:48.487Z,605.5
2023-03-05T16:04:31.821Z,609.1
2023-03-05T16:06:15.233Z,615.5
2023-03-05T16:07:58.750Z,622.8
2023-03-05T16:09:42.000Z,626.6
2023-03-05T16:11:25.442Z,629.5
2023-03-05T16:13:08.808Z,632.7
2023-03-05T16:14:52.204Z,639.4
2023-03-05T16:18:18.946Z,662.1
2023-03-05T16:20:02.194Z,674.1
2023-03-05T16:21:45.450Z,676
2023-03-05T16:23:28.934Z,672.2
2023-03-05T16:25:12.310Z,670.1
2023-03-05T16:26:55.782Z,680.1
2023-03-05T16:28:39.127Z,691
2023-03-05T16:30:22.462Z,698.2
2023-03-05T16:33:49.074Z,708.1
2023-03-05T16:35:32.500Z,704.7
2023-03-05T16:37:15.846Z,704.5
2023-03-05T16:38:59.099Z,708.6
2023-03-05T16:40:42.544Z,714.2
2023-03-05T16:42:25.931Z,716.5
2023-03-05T16:44:09.301Z,719.1
2023-03-05T16:45:52.787Z,723.3
2023-03-05T16:51:01.948Z,723.8
2023-03-05T16:52:45.430Z,723.7
2023-03-05T16:54:28.741Z,723.8
2023-03-05T16:56:12.179Z,725.3
2023-03-05T16:57:55.511Z,725.4
2023-03-05T16:59:38.954Z,727.6
2023-03-05T17:01:22.359Z,731.5
2023-03-05T17:03:05.743Z,732.6
2023-03-05T17:06:32.359Z,734.2
2023-03-05T17:08:15.704Z,739.2
2023-03-05T17:09:58.957Z,742.7
2023-03-05T17:11:42.421Z,744.8
2023-03-05T17:13:25.830Z,746.7
2023-03-05T17:15:09.268Z,749
2023-03-05T17:16:52.675Z,751.3
2023-03-05T17:18:35.950Z,755.4
2023-03-05T17:23:45.197Z,780.2
2023-03-05T17:25:28.682Z,786.2
2023-03-05T17:27:12.114Z,786.3
2023-03-05T17:28:55.430Z,786.7
2023-03-05T17:30:38.788Z,793.3
2023-03-05T17:32:22.241Z,800
2023-03-05T17:34:05.557Z,804.6
2023-03-05T17:35:49.030Z,809.4
2023-03-05T17:39:15.429Z,832.4
2023-03-05T17:40:58.816Z,855.6
2023-03-05T17:42:42.256Z,880
2023-03-05T17:44:25.649Z,888.2
2023-03-05T17:46:09.075Z,888
2023-03-05T17:47:52.532Z,876.1
2023-03-05T17:49:35.964Z,875.5
2023-03-05T17:51:19.195Z,874.2
2023-03-05T17:54:45.688Z,876.5
2023-03-05T17:56:29.087Z,876.2
2023-03-05T17:58:12.452Z,876.5
2023-03-05T17:59:55.933Z,875.7
2023-03-05T18:01:39.377Z,874.6
2023-03-05T18:03:22.656Z,870.6
2023-03-05T18:05:06.071Z,868.6
2023-03-05T18:06:49.462Z,865.7
2023-03-05T18:10:15.923Z,861.8
2023-03-05T18:11:59.378Z,858
2023-03-05T18:13:42.751Z,855.4
2023-03-05T18:15:26.144Z,852
2023-03-05T18:17:09.530Z,848.7
2023-03-05T18:18:52.939Z,846.5
2023-03-05T18:20:36.295Z,842.1
2023-03-05T18:22:19.748Z,838.5
2023-03-05T18:27:28.919Z,840
2023-03-05T18:29:12.334Z,839.7
2023-03-05T18:30:55.773Z,839.2
2023-03-05T18:32:39.106Z,836.4
2023-03-05T18:34:22.512Z,834.6
2023-03-05T18:36:05.918Z,835
2023-03-05T18:37:49.409Z,831.4
2023-03-05T18:39:32.697Z,828.8
2023-03-05T18:44:41.943Z,829.7
2023-03-05T18:46:25.379Z,828.4
2023-03-05T18:48:08.722Z,828
2023-03-05T18:49:52.128Z,825
2023-03-05T18:51:35.521Z,823.6
2023-03-05T18:53:18.925Z,823.7
2023-03-05T18:55:02.383Z,826
2023-03-05T18:56:45.840Z,826.5
2023-03-05T19:00:12.183Z,826.4
2023-03-05T19:01:55.579Z,826.4
2023-03-05T19:03:38.998Z,827.8
2023-03-05T19:05:22.412Z,827.2
2023-03-05T19:07:05.761Z,828.7
2023-03-05T19:08:49.239Z,830
2023-03-05T19:10:32.638Z,833.3
2023-03-05T19:12:16.031Z,836.2
2023-03-05T19:15:42.506Z,840.1
2023-03-05T19:17:25.834Z,843.7
2023-03-05T19:19:09.234Z,848
2023-03-05T19:20:52.758Z,851.6
2023-03-05T19:22:36.009Z,852.7
2023-03-05T19:24:19.526Z,851.5
2023-03-05T19:26:02.849Z,852.7
2023-03-05T19:27:46.221Z,857.6
2023-03-05T19:32:55.537Z,861.5
2023-03-05T19:34:38.868Z,866.4
2023-03-05T19:36:22.360Z,882.7
2023-03-05T19:38:05.805Z,888.3
2023-03-05T19:39:49.201Z,888.8
2023-03-05T19:41:32.590Z,888
2023-03-05T19:43:15.955Z,890.4
2023-03-05T19:44:59.217Z,889.7
2023-03-05T19:48:25.816Z,883.3
2023-03-05T19:50:09.261Z,881.6
2023-03-05T19:51:52.552Z,883.2
2023-03-05T19:53:36.034Z,880.5
2023-03-05T19:55:19.341Z,883.3
2023-03-05T19:57:02.787Z,885.8
2023-03-05T19:58:46.152Z,886.6
2023-03-05T20:00:29.451Z,888.5
2023-03-05T20:05:38.854Z,884.7
2023-03-05T20:07:22.094Z,887.7
2023-03-05T20:09:05.520Z,883.5
2023-03-05T20:10:48.871Z,883
2023-03-05T20:12:32.425Z,882.8
2023-03-05T20:14:15.713Z,883.2
2023-03-05T20:15:59.130Z,885
2023-03-05T20:17:42.492Z,888.4
2023-03-05T20:21:09.003Z,890.9
2023-03-05T20:22:52.350Z,892.2
2023-03-05T20:24:35.730Z,896.4
2023-03-05T20:26:19.183Z,897.6
2023-03-05T20:28:02.520Z,897.8
2023-03-05T20:29:45.912Z,899.8
2023-03-05T20:31:29.379Z,902.2
2023-03-05T20:33:12.795Z,905.1
2023-03-05T20:36:39.243Z,907.7
2023-03-05T20:38:22.609Z,906.4
2023-03-05T20:40:06.005Z,907
2023-03-05T20:41:49.454Z,908
2023-03-05T20:43:32.845Z,911
2023-03-05T20:45:16.204Z,912.5
2023-03-05T20:46:59.557Z,913
2023-03-05T20:48:43.117Z,914.4
2023-03-05T20:52:09.594Z,919.8
2023-03-05T20:53:52.817Z,922.6
2023-03-05T20:55:36.225Z,925.6
2023-03-05T20:57:19.625Z,927.2
2023-03-05T20:59:03.021Z,929.2
2023-03-05T21:00:46.418Z,932.6
2023-03-05T21:02:29.800Z,932.8
2023-03-05T21:04:13.270Z,930.8
2023-03-05T21:09:22.463Z,933.9
2023-03-05T21:11:05.871Z,936.7
2023-03-05T21:12:49.241Z,938.7
2023-03-05T21:14:32.817Z,940.3
2023-03-05T21:16:16.038Z,944.5
2023-03-05T21:17:59.430Z,946.6
2023-03-05T21:19:42.884Z,951.4
2023-03-05T21:24:52.064Z,959.5
2023-03-05T21:26:35.477Z,960.3
2023-03-05T21:28:18.858Z,959.5
2023-03-05T21:30:02.285Z,956.6
2023-03-05T21:31:45.730Z,959.1
2023-03-05T21:33:29.083Z,958.8
2023-03-05T21:35:12.453Z,959.5
2023-03-05T21:36:55.985Z,954.8
2023-03-05T21:38:39.589Z,951.5
2023-03-05T21:40:22.960Z,948.6
2023-03-05T21:42:06.327Z,947.1
2023-03-05T21:43:49.733Z,942.3
2023-03-05T21:45:33.126Z,939.6
2023-03-05T21:47:16.522Z,938.8
2023-03-05T21:48:59.914Z,937.1
2023-03-05T21:50:43.374Z,939.6
2023-03-05T21:54:09.898Z,937
2023-03-05T21:55:53.172Z,937.7
2023-03-05T21:57:36.574Z,940
2023-03-05T21:59:19.969Z,944.3
2023-03-05T22:01:03.379Z,943.6
2023-03-05T22:02:46.827Z,945.5
2023-03-05T22:04:30.190Z,1008.6
2023-03-05T22:06:13.554Z,1091.4
2023-03-05T22:09:40.020Z,1108.2
2023-03-05T22:11:23.428Z,1099.5
2023-03-05T22:13:06.808Z,1084.1
2023-03-05T22:14:50.217Z,1061.2
2023-03-05T22:16:33.603Z,1035.4
2023-03-05T22:18:17.000Z,1020.4
2023-03-05T22:20:00.386Z,1003.4
2023-03-05T22:21:43.833Z,986
2023-03-05T22:25:10.261Z,934.5
2023-03-05T22:26:53.655Z,910.8
2023-03-05T22:28:37.066Z,894.4
2023-03-05T22:30:20.438Z,886.5
2023-03-05T22:32:03.897Z,883.3
2023-03-05T22:33:47.273Z,884
2023-03-05T22:35:30.660Z,884.7
2023-03-05T22:37:14.176Z,889
2023-03-05T22:40:40.518Z,885.9
2023-03-05T22:42:23.905Z,884.7
2023-03-05T22:44:07.302Z,888.5
2023-03-05T22:45:50.708Z,890.7
2023-03-05T22:47:34.097Z,893.6
2023-03-05T22:49:17.549Z,895.6
2023-03-05T22:51:00.880Z,896.6
2023-03-05T22:52:44.466Z,897.2
2023-03-05T22:57:53.592Z,898.8
2023-03-05T22:59:36.921Z,900.2
2023-03-05T23:01:20.369Z,900.7
2023-03-05T23:03:03.781Z,901.2
2023-03-05T23:04:47.098Z,900.6
2023-03-05T23:06:30.548Z,902.6
2023-03-05T23:08:13.991Z,901.4
2023-03-05T23:09:57.313Z,906
2023-03-05T23:13:23.775Z,919.9
2023-03-05T23:15:07.216Z,923.6
2023-03-05T23:16:50.548Z,926.6
2023-03-05T23:18:33.952Z,932.1
2023-03-05T23:20:17.410Z,934.6
2023-03-05T23:22:00.781Z,935.1
2023-03-05T23:23:44.198Z,934.2
2023-03-05T23:25:27.597Z,935.5
2023-03-05T23:28:54.045Z,934.4
2023-03-05T23:30:37.408Z,932.6
2023-03-05T23:32:20.804Z,930.1
2023-03-05T23:34:04.214Z,926.2
2023-03-05T23:35:47.754Z,927.1
2023-03-05T23:37:31.012Z,929.1
2023-03-05T23:39:14.483Z,930.7
2023-03-05T23:40:57.857Z,932.6
2023-03-05T23:44:24.250Z,936.8
2023-03-05T23:46:07.649Z,939.6
2023-03-05T23:47:51.070Z,939.5
2023-03-05T23:49:34.447Z,933.8
2023-03-05T23:51:17.847Z,931.3
2023-03-05T23:53:01.234Z,931.5
2023-03-05T23:54:44.653Z,931.1
2023-03-05T23:56:28.038Z,934.1
2023-03-05T23:59:54.507Z,936.6
